Time;durP1;ratioP1;P1;durP2;ratioP2;P2;SDS_P1;SDS_P2;PMS_P1;PMS_P2;Temp;Humidity;BMP_temperature;BMP_pressure;BME280_temperature;BME280_humidity;BME280_pressure;Samples;Min_cycle;Max_cycle;Signal;HPM_P1;HPM_P2
2021/10/20 00:01:37;562369.00;1.87;969.29;0.00;0.00;0.62;;;;;16.90;2.70;;;;;;2253574;61;1002;-87
2021/10/20 00:04:06;814375.00;2.71;1406.21;0.00;0.00;0.62;;;;;17.30;2.30;;;;;;2253648;61;1351;-87
2021/10/20 00:06:33;705466.00;2.35;1216.72;11025.00;0.04;19.72;;;;;17.70;2.00;;;;;;2253674;61;997;-87
2021/10/20 00:09:00;724074.00;2.41;1249.01;0.00;0.00;0.62;;;;;17.90;1.00;;;;;;2255426;61;967;-87
2021/10/20 00:11:29;622058.00;2.07;1072.32;2899.00;0.01;5.64;;;;;17.70;1.00;;;;;;2255440;61;932;-86
2021/10/20 00:13:56;745174.00;2.48;1285.67;64771.00;0.22;112.72;;;;;17.60;1.00;;;;;;2247348;61;1405;-86
2021/10/20 00:16:24;583764.00;1.95;1006.19;23605.00;0.08;41.51;;;;;17.60;1.00;;;;;;2244162;61;1049;-88
2021/10/20 00:18:52;577080.00;1.92;994.66;0.00;0.00;0.62;;;;;17.80;1.00;;;;;;2247517;61;1995;-88
2021/10/20 00:21:24;891990.00;2.97;1542.06;0.00;0.00;0.62;;;;;17.50;1.00;;;;;;2247336;61;1152;-87
2021/10/20 00:23:52;288269.00;0.96;497.75;0.00;0.00;0.62;;;;;17.20;1.00;;;;;;2244174;61;1529;-87
2021/10/20 00:26:20;380375.00;1.27;656.07;0.00;0.00;0.62;;;;;16.50;1.00;;;;;;2248869;61;1027;-88
2021/10/20 00:28:48;220707.00;0.74;381.56;0.00;0.00;0.62;;;;;16.10;1.00;;;;;;2248844;61;995;-87
2021/10/20 00:31:15;282886.00;0.94;488.50;0.00;0.00;0.62;;;;;16.00;1.00;;;;;;2250350;61;1056;-87
2021/10/20 00:33:42;368207.00;1.23;635.15;0.00;0.00;0.62;;;;;15.90;1.00;;;;;;2255376;61;1444;-87
2021/10/20 00:36:09;432864.00;1.44;746.31;0.00;0.00;0.62;;;;;15.70;1.00;;;;;;2255469;61;1686;-87
2021/10/20 00:38:37;509827.00;1.70;878.74;0.00;0.00;0.62;;;;;15.50;1.00;;;;;;2255466;61;2009;-87
2021/10/20 00:41:04;502334.00;1.67;865.84;0.00;0.00;0.62;;;;;14.90;1.00;;;;;;2248823;61;957;-88
2021/10/20 00:43:31;545634.00;1.82;940.43;0.00;0.00;0.62;;;;;14.60;1.00;;;;;;2254982;61;1542;-88
2021/10/20 00:45:59;515713.00;1.72;888.88;0.00;0.00;0.62;;;;;14.60;1.00;;;;;;2248779;61;964;-88
2021/10/20 00:48:26;553633.00;1.85;954.22;0.00;0.00;0.62;;;;;14.30;1.00;;;;;;2247490;62;1048;-87
2021/10/20 00:50:54;453406.00;1.51;781.64;0.00;0.00;0.62;;;;;14.00;1.80;;;;;;2248366;61;1032;-88
2021/10/20 00:53:21;403983.00;1.35;696.65;0.00;0.00;0.62;;;;;14.00;3.00;;;;;;2255411;61;1323;-87
2021/10/20 00:55:48;422599.00;1.41;728.66;0.00;0.00;0.62;;;;;14.10;3.00;;;;;;2255459;61;1018;-87
2021/10/20 00:58:15;650907.00;2.17;1122.21;0.00;0.00;0.62;;;;;13.70;2.00;;;;;;2255272;61;1930;-87
2021/10/20 01:00:42;359801.00;1.20;620.71;0.00;0.00;0.62;;;;;13.40;4.30;;;;;;2255436;61;1041;-88
2021/10/20 01:03:11;315624.00;1.05;544.78;0.00;0.00;0.62;;;;;13.10;3.30;;;;;;2248730;61;1451;-87
2021/10/20 01:05:38;558919.00;1.86;963.34;0.00;0.00;0.62;;;;;13.00;4.90;;;;;;2256295;61;930;-87
2021/10/20 01:08:05;419748.00;1.40;723.76;0.00;0.00;0.62;;;;;13.40;4.80;;;;;;2251350;61;1034;-87
2021/10/20 01:10:33;396138.00;1.32;683.17;0.00;0.00;0.62;;;;;13.20;3.20;;;;;;2248079;61;955;-88
2021/10/20 01:13:00;453267.00;1.51;781.40;0.00;0.00;0.62;;;;;13.30;3.80;;;;;;2241521;61;1345;-87
2021/10/20 01:15:28;366410.00;1.22;632.07;0.00;0.00;0.62;;;;;13.70;4.70;;;;;;2251303;61;1085;-87
2021/10/20 01:17:55;398461.00;1.33;687.16;0.00;0.00;0.62;;;;;14.10;3.50;;;;;;2251297;61;1699;-88
2021/10/20 01:20:26;338542.00;1.13;584.17;0.00;0.00;0.62;;;;;14.20;1.90;;;;;;2250937;61;1982;-85
2021/10/20 01:22:54;523784.00;1.75;902.78;0.00;0.00;0.62;;;;;14.20;4.90;;;;;;2251334;61;1305;-87
2021/10/20 01:25:22;455465.00;1.52;785.18;0.00;0.00;0.62;;;;;14.20;4.30;;;;;;2241176;61;1040;-88
2021/10/20 01:27:49;317893.00;1.06;548.68;0.00;0.00;0.62;;;;;14.10;1.80;;;;;;2251259;61;1137;-86
2021/10/20 01:30:16;485545.00;1.62;836.94;0.00;0.00;0.62;;;;;14.00;2.90;;;;;;2251292;61;1082;-88
2021/10/20 01:32:44;532386.00;1.77;917.60;0.00;0.00;0.62;;;;;14.40;3.70;;;;;;2251446;61;1065;-87
2021/10/20 01:35:11;365818.00;1.22;631.05;0.00;0.00;0.62;;;;;14.80;2.60;;;;;;2251382;61;1437;-87
2021/10/20 01:37:39;536104.00;1.79;924.01;0.00;0.00;0.62;;;;;15.20;1.50;;;;;;2251254;61;963;-87
2021/10/20 01:40:11;397880.00;1.33;686.16;0.00;0.00;0.62;;;;;15.00;1.00;;;;;;2251247;61;1924;-87
2021/10/20 01:42:38;630205.00;2.10;1086.40;0.00;0.00;0.62;;;;;14.90;1.00;;;;;;2252573;61;1707;-86
2021/10/20 01:45:09;501351.00;1.67;864.15;0.00;0.00;0.62;;;;;15.00;1.00;;;;;;2263701;61;1338;-87
2021/10/20 01:47:36;740263.00;2.47;1277.13;36359.00;0.12;63.59;;;;;14.30;1.50;;;;;;2263761;61;1031;-87
2021/10/20 01:50:05;418694.00;1.40;721.94;0.00;0.00;0.62;;;;;14.10;2.30;;;;;;2263726;61;890;-87
2021/10/20 01:52:32;424136.00;1.41;731.30;0.00;0.00;0.62;;;;;14.10;1.50;;;;;;2263787;61;1097;-87
2021/10/20 01:54:59;379942.00;1.27;655.33;0.00;0.00;0.62;;;;;13.40;2.40;;;;;;2253392;61;1346;-87
2021/10/20 01:57:27;475768.00;1.59;820.11;77278.00;0.26;134.34;;;;;13.00;4.50;;;;;;2256713;61;964;-87
2021/10/20 01:59:54;479492.00;1.60;826.52;0.00;0.00;0.62;;;;;12.60;5.80;;;;;;2263672;61;1979;-87
2021/10/20 02:02:22;421246.00;1.40;726.33;0.00;0.00;0.62;;;;;12.20;6.30;;;;;;2253351;61;1150;-87
2021/10/20 02:04:50;714272.00;2.38;1232.00;0.00;0.00;0.62;;;;;12.30;7.10;;;;;;2251101;61;1318;-87
2021/10/20 02:07:17;364401.00;1.21;628.61;0.00;0.00;0.62;;;;;12.40;7.50;;;;;;2247896;61;999;-86
2021/10/20 02:09:45;835187.00;2.78;1442.56;47847.00;0.16;83.46;;;;;12.40;7.40;;;;;;2241394;61;959;-87
2021/10/20 02:12:12;402240.00;1.34;693.66;0.00;0.00;0.62;;;;;12.80;6.70;;;;;;2247853;61;1024;-88
2021/10/20 02:14:41;599955.00;2.00;1034.14;58946.00;0.20;102.65;;;;;12.60;5.70;;;;;;2251241;61;1418;-87
2021/10/20 02:17:08;478990.00;1.60;825.66;0.00;0.00;0.62;;;;;12.60;5.20;;;;;;2243283;62;971;-88
2021/10/20 02:19:35;422403.00;1.41;728.32;0.00;0.00;0.62;;;;;12.60;5.90;;;;;;2240518;62;1927;-87
2021/10/20 02:22:04;501347.00;1.67;864.14;0.00;0.00;0.62;;;;;12.80;5.30;;;;;;2241672;61;968;-87
2021/10/20 02:24:31;448267.00;1.49;772.80;0.00;0.00;0.62;;;;;12.90;5.60;;;;;;2255597;61;1605;-86
2021/10/20 02:26:58;751614.00;2.51;1296.86;0.00;0.00;0.62;;;;;13.10;7.10;;;;;;2249117;61;1008;-87
2021/10/20 02:29:25;397948.00;1.33;686.28;0.00;0.00;0.62;;;;;13.30;4.00;;;;;;2245888;61;990;-87
2021/10/20 02:31:53;433122.00;1.44;746.75;0.00;0.00;0.62;;;;;13.80;2.90;;;;;;2245728;61;1020;-88
2021/10/20 02:34:22;638115.00;2.13;1100.08;0.00;0.00;0.62;;;;;14.30;3.70;;;;;;2255676;61;1577;-86
2021/10/20 02:36:49;390459.00;1.30;673.40;0.00;0.00;0.62;;;;;14.60;3.30;;;;;;2252285;61;988;-86
2021/10/20 02:39:16;484695.00;1.62;835.48;0.00;0.00;0.62;;;;;14.70;1.00;;;;;;2255527;61;1998;-87
2021/10/20 02:41:43;467637.00;1.56;806.12;0.00;0.00;0.62;;;;;14.50;1.00;;;;;;2247988;61;1042;-88
2021/10/20 02:44:10;367879.00;1.23;634.59;0.00;0.00;0.62;;;;;13.90;1.00;;;;;;2251792;61;1413;-87
2021/10/20 02:46:38;372169.00;1.24;641.96;0.00;0.00;0.62;;;;;13.90;2.60;;;;;;2251816;61;952;-88
2021/10/20 02:49:06;372953.00;1.24;643.31;0.00;0.00;0.62;;;;;13.80;2.00;;;;;;2255666;61;1068;-87
2021/10/20 02:51:33;382116.00;1.27;659.06;0.00;0.00;0.62;;;;;13.60;1.50;;;;;;2247795;61;1072;-86
2021/10/20 02:54:01;483529.00;1.61;833.47;24534.00;0.08;43.12;;;;;13.40;1.40;;;;;;2247728;61;1323;-88
2021/10/20 02:56:28;419268.00;1.40;722.93;0.00;0.00;0.62;;;;;13.60;1.60;;;;;;2243736;61;996;-87
2021/10/20 02:58:56;364913.00;1.22;629.49;0.00;0.00;0.62;;;;;13.30;3.70;;;;;;2240976;61;1912;-87
2021/10/20 03:01:23;346103.00;1.15;597.16;0.00;0.00;0.62;;;;;12.80;1.50;;;;;;2244302;61;1027;-88
2021/10/20 03:03:50;433460.00;1.44;747.34;0.00;0.00;0.62;;;;;12.90;2.50;;;;;;2244400;61;1339;-88
2021/10/20 03:06:19;469895.00;1.57;810.01;0.00;0.00;0.62;;;;;12.90;3.70;;;;;;2245384;61;1034;-88
2021/10/20 03:08:46;285013.00;0.95;492.16;0.00;0.00;0.62;;;;;12.80;3.60;;;;;;2248597;61;981;-88
2021/10/20 03:11:13;421857.00;1.41;727.38;0.00;0.00;0.62;;;;;12.90;4.50;;;;;;2255700;61;1027;-88
2021/10/20 03:13:40;511343.00;1.70;881.36;0.00;0.00;0.62;;;;;12.90;2.30;;;;;;2248957;61;1282;-88
2021/10/20 03:16:07;431209.00;1.44;743.46;0.00;0.00;0.62;;;;;12.90;2.90;;;;;;2243666;62;1051;-88
2021/10/20 03:18:35;518117.00;1.73;893.02;0.00;0.00;0.62;;;;;13.50;4.50;;;;;;2243665;62;1146;-87
2021/10/20 03:26:33;881862.00;2.94;1524.29;9898.00;0.03;17.77;;;;;15.40;4.90;;;;;;2266282;61;1212;-88
2021/10/20 03:29:01;622309.00;2.07;1072.76;0.00;0.00;0.62;;;;;15.60;1.00;;;;;;2257239;61;1430;-88
2021/10/20 03:31:30;304645.00;1.02;525.90;0.00;0.00;0.62;;;;;15.20;1.00;;;;;;2249055;61;959;-88
2021/10/20 03:33:57;486555.00;1.62;838.68;0.00;0.00;0.62;;;;;15.00;1.00;;;;;;2255335;61;1502;-87
2021/10/20 03:36:24;438842.00;1.46;756.59;0.00;0.00;0.62;;;;;14.80;1.00;;;;;;2255541;61;1028;-88
2021/10/20 03:38:52;117440320.00;391.47;65611608.00;0.00;0.00;0.62;;;;;14.90;1.00;;;;;;2248759;61;1924;-88
2021/10/20 03:41:19;520037.00;1.73;896.33;0.00;0.00;0.62;;;;;14.20;1.00;;;;;;2248925;61;1011;-88
2021/10/20 03:43:46;537105.00;1.79;925.73;0.00;0.00;0.62;;;;;13.90;1.60;;;;;;2255256;61;1294;-88
2021/10/20 03:46:14;476354.00;1.59;821.12;0.00;0.00;0.62;;;;;13.70;1.00;;;;;;2249441;61;1084;-87
2021/10/20 03:48:41;638341.00;2.13;1100.47;28648.00;0.10;50.24;;;;;13.50;1.30;;;;;;2260073;61;971;-88
2021/10/20 03:51:08;546662.00;1.82;942.21;0.00;0.00;0.62;;;;;13.30;1.00;;;;;;2256285;61;1114;-87
2021/10/20 03:53:35;570566.00;1.90;983.42;12135.00;0.04;21.65;;;;;13.40;1.50;;;;;;2252966;61;1408;-87
2021/10/20 03:56:02;373386.00;1.24;644.06;0.00;0.00;0.62;;;;;13.00;2.50;;;;;;2260010;61;1016;-88
2021/10/20 03:58:29;538140.00;1.79;927.52;0.00;0.00;0.62;;;;;13.10;2.90;;;;;;2259987;61;1171;-88
2021/10/20 04:00:57;460663.00;1.54;794.13;0.00;0.00;0.62;;;;;13.30;3.40;;;;;;2259733;61;2017;-87
2021/10/20 04:03:25;508031.00;1.69;875.65;0.00;0.00;0.62;;;;;14.10;5.50;;;;;;2259680;61;1314;-88
2021/10/20 04:05:52;522546.00;1.74;900.65;0.00;0.00;0.62;;;;;14.50;2.20;;;;;;2252977;61;975;-87
2021/10/20 04:08:19;497557.00;1.66;857.62;0.00;0.00;0.62;;;;;14.40;1.20;;;;;;2252842;61;1006;-88
2021/10/20 04:10:46;407160.00;1.36;702.11;0.00;0.00;0.62;;;;;14.40;2.60;;;;;;2259879;61;1069;-88
2021/10/20 04:13:13;495786.00;1.65;854.57;0.00;0.00;0.62;;;;;14.30;1.30;;;;;;2259665;61;1455;-89
2021/10/20 04:15:40;461147.00;1.54;794.96;0.00;0.00;0.62;;;;;14.50;3.50;;;;;;2259612;61;1085;-88
2021/10/20 04:18:06;382878.00;1.28;660.37;0.00;0.00;0.62;;;;;15.10;1.70;;;;;;2259783;61;1682;-87
2021/10/20 04:20:35;430701.00;1.44;742.59;0.00;0.00;0.62;;;;;14.00;1.00;;;;;;2259885;61;1985;-86
2021/10/20 04:23:03;648775.00;2.16;1118.52;59272.00;0.20;103.22;;;;;13.00;1.40;;;;;;2260049;61;1365;-88
2021/10/20 04:25:29;365107.00;1.22;629.83;0.00;0.00;0.62;;;;;12.90;2.80;;;;;;2259870;61;1102;-87
2021/10/20 04:27:56;538148.00;1.79;927.53;0.00;0.00;0.62;;;;;13.10;2.70;;;;;;2259855;61;1145;-88
2021/10/20 04:30:24;398367.00;1.33;687.00;0.00;0.00;0.62;;;;;13.70;8.00;;;;;;2259727;61;999;-87
2021/10/20 04:32:51;416515.00;1.39;718.20;0.00;0.00;0.62;;;;;14.70;7.70;;;;;;2259965;61;1229;-87
2021/10/20 04:35:22;267453.00;0.89;461.96;0.00;0.00;0.62;;;;;14.80;1.00;;;;;;2259822;61;1668;-88
2021/10/20 04:37:51;320699.00;1.07;553.50;0.00;0.00;0.62;;;;;14.90;1.30;;;;;;2259975;61;1216;-88
2021/10/20 04:40:18;388279.00;1.29;669.66;0.00;0.00;0.62;;;;;14.60;1.00;;;;;;2259707;61;2007;-88
2021/10/20 04:42:45;560743.00;1.87;966.48;0.00;0.00;0.62;;;;;13.90;1.00;;;;;;2259798;61;959;-88
2021/10/20 04:45:12;522094.00;1.74;899.87;22497.00;0.07;39.59;;;;;13.80;1.00;;;;;;2259914;61;1487;-87
2021/10/20 04:47:39;469308.00;1.56;809.00;0.00;0.00;0.62;;;;;13.90;4.50;;;;;;2259870;61;930;-88
2021/10/20 04:50:08;330897.00;1.10;571.03;0.00;0.00;0.62;;;;;14.30;2.70;;;;;;2259977;61;1009;-86
2021/10/20 04:52:36;628708.00;2.10;1083.82;0.00;0.00;0.62;;;;;15.00;5.30;;;;;;2255173;61;988;-88
2021/10/20 04:55:05;463762.00;1.55;799.46;0.00;0.00;0.62;;;;;15.50;2.90;;;;;;2255289;61;1362;-87
2021/10/20 04:57:32;380303.00;1.27;655.95;0.00;0.00;0.62;;;;;15.70;1.00;;;;;;2255225;61;1699;-87
2021/10/20 04:59:59;570488.00;1.90;983.29;0.00;0.00;0.62;;;;;15.30;1.00;;;;;;2255081;61;1924;-87
2021/10/20 05:02:26;448959.00;1.50;773.99;0.00;0.00;0.62;;;;;15.60;3.00;;;;;;2255421;61;1105;-87
2021/10/20 05:04:53;399685.00;1.33;689.26;0.00;0.00;0.62;;;;;16.00;2.20;;;;;;2255328;61;1418;-86
2021/10/20 05:07:20;504987.00;1.68;870.41;0.00;0.00;0.62;;;;;15.60;1.00;;;;;;2255321;61;1142;-88
2021/10/20 05:09:49;416356.00;1.39;717.92;0.00;0.00;0.62;;;;;15.90;1.80;;;;;;2255865;61;1791;-87
2021/10/20 05:12:19;343452.00;1.14;592.61;0.00;0.00;0.62;;;;;15.90;1.00;;;;;;2259675;61;1107;-87
2021/10/20 05:14:46;346655.00;1.16;598.11;0.00;0.00;0.62;;;;;15.70;1.00;;;;;;2255123;61;1588;-88
2021/10/20 05:17:13;477614.00;1.59;823.29;0.00;0.00;0.62;;;;;15.50;1.00;;;;;;2254916;61;1190;-87
2021/10/20 05:19:40;388550.00;1.30;670.12;0.00;0.00;0.62;;;;;15.70;1.00;;;;;;2254803;61;2013;-87
2021/10/20 05:22:07;319029.00;1.06;550.63;0.00;0.00;0.62;;;;;15.20;1.00;;;;;;2255295;61;1059;-88
2021/10/20 05:24:34;509657.00;1.70;878.45;0.00;0.00;0.62;;;;;15.20;1.00;;;;;;2255175;61;1407;-88
2021/10/20 05:27:02;341983.00;1.14;590.08;0.00;0.00;0.62;;;;;15.50;1.00;;;;;;2255107;61;1070;-87
2021/10/20 05:29:32;323634.00;1.08;558.54;0.00;0.00;0.62;;;;;14.70;1.00;;;;;;2254603;61;1200;-88
2021/10/20 05:32:00;509247.00;1.70;877.75;0.00;0.00;0.62;;;;;13.90;1.00;;;;;;2255606;61;1180;-88
2021/10/20 05:34:27;461929.00;1.54;796.30;0.00;0.00;0.62;;;;;13.20;1.00;;;;;;2259580;61;1372;-87
2021/10/20 05:36:54;452935.00;1.51;780.83;0.00;0.00;0.62;;;;;13.10;1.00;;;;;;2259639;61;1565;-87
2021/10/20 05:39:23;471392.00;1.57;812.58;0.00;0.00;0.62;;;;;13.50;2.60;;;;;;2259629;61;2034;-86
2021/10/20 05:41:50;457569.00;1.53;788.80;0.00;0.00;0.62;;;;;13.70;1.60;;;;;;2259118;61;1120;-87
2021/10/20 05:44:17;420966.00;1.40;725.85;0.00;0.00;0.62;;;;;13.70;1.00;;;;;;2259693;61;1409;-88
2021/10/20 05:46:48;333404.00;1.11;575.34;0.00;0.00;0.62;;;;;14.20;1.90;;;;;;2259593;61;1457;-87
2021/10/20 05:49:15;691227.00;2.30;1192.03;11275.00;0.04;20.16;;;;;14.30;1.00;;;;;;2259660;61;1077;-87
2021/10/20 05:51:42;649800.00;2.17;1120.29;0.00;0.00;0.62;;;;;14.50;1.00;;;;;;2259685;61;1032;-87
2021/10/20 05:54:09;448747.00;1.50;773.63;0.00;0.00;0.62;;;;;14.50;2.20;;;;;;2260143;61;1407;-87
2021/10/20 05:56:36;379278.00;1.26;654.18;0.00;0.00;0.62;;;;;15.30;2.70;;;;;;2260299;61;982;-86
2021/10/20 05:59:04;413755.00;1.38;713.45;0.00;0.00;0.62;;;;;15.60;1.40;;;;;;2260310;61;1059;-87
2021/10/20 06:01:31;788362.00;2.63;1360.83;0.00;0.00;0.62;;;;;15.50;1.00;;;;;;2260386;61;2003;-87
2021/10/20 06:04:00;429424.00;1.43;740.40;0.00;0.00;0.62;;;;;15.60;1.00;;;;;;2260356;61;1247;-88
2021/10/20 06:06:28;452085.00;1.51;779.37;0.00;0.00;0.62;;;;;16.00;1.00;;;;;;2260311;61;1169;-88
2021/10/20 06:08:54;662539.00;2.21;1142.34;0.00;0.00;0.62;;;;;16.30;1.00;;;;;;2260352;61;1039;-87
2021/10/20 06:11:22;491614.00;1.64;847.39;0.00;0.00;0.62;;;;;16.30;1.00;;;;;;2260267;61;1040;-87
2021/10/20 06:13:49;720506.00;2.40;1242.82;0.00;0.00;0.62;;;;;15.40;1.00;;;;;;2260278;61;1385;-87
2021/10/20 06:16:16;605397.00;2.02;1043.54;0.00;0.00;0.62;;;;;15.70;1.10;;;;;;2260246;61;1153;-88
2021/10/20 06:18:42;723714.00;2.41;1248.39;0.00;0.00;0.62;;;;;15.90;1.00;;;;;;2260297;61;1096;-87
2021/10/20 06:21:11;520895.00;1.74;897.81;0.00;0.00;0.62;;;;;16.30;1.00;;;;;;2260235;61;2006;-87
2021/10/20 06:23:38;624409.00;2.08;1076.39;0.00;0.00;0.62;;;;;16.40;1.00;;;;;;2260197;61;1416;-87
2021/10/20 06:26:05;499190.00;1.66;860.43;0.00;0.00;0.62;;;;;16.30;1.00;;;;;;2260226;61;990;-87
2021/10/20 06:28:32;559052.00;1.86;963.57;0.00;0.00;0.62;;;;;15.70;1.00;;;;;;2260132;61;1084;-87
2021/10/20 06:30:59;331739.00;1.11;572.48;0.00;0.00;0.62;;;;;15.50;1.00;;;;;;2260121;61;1092;-90
2021/10/20 06:33:26;595020.00;1.98;1025.62;0.00;0.00;0.62;;;;;15.70;1.00;;;;;;2260137;61;1278;-91
2021/10/20 06:35:54;550100.00;1.83;948.13;0.00;0.00;0.62;;;;;15.80;1.00;;;;;;2260142;61;1124;-90
2021/10/20 06:38:30;118763376.00;395.88;67856216.00;0.00;0.00;0.62;;;;;15.90;1.00;;;;;;2260118;61;1209;-90
2021/10/20 06:40:57;420128.00;1.40;724.41;0.00;0.00;0.62;;;;;16.30;1.00;;;;;;2260069;61;2011;-90
2021/10/20 06:43:24;775683.00;2.59;1338.75;0.00;0.00;0.62;;;;;16.60;1.00;;;;;;2259924;61;1270;-90
2021/10/20 06:45:51;696449.00;2.32;1201.08;0.00;0.00;0.62;;;;;17.10;1.00;;;;;;2259477;61;964;-90
2021/10/20 06:48:18;566087.00;1.89;975.70;0.00;0.00;0.62;;;;;17.20;1.00;;;;;;2260002;61;1020;-90
2021/10/20 06:50:47;891696.00;2.97;1541.54;0.00;0.00;0.62;;;;;17.20;1.00;;;;;;2260026;61;1718;-91
2021/10/20 06:53:14;575601.00;1.92;992.11;0.00;0.00;0.62;;;;;17.40;1.00;;;;;;2260067;61;1372;-91
2021/10/20 06:58:10;212766.00;0.71;367.90;4876.00;0.02;9.07;;;;;16.60;1.00;;;;;;2275378;61;1301;-90
2021/10/20 08:57:34;262621.00;0.88;453.66;93775.00;0.31;162.83;;;;;21.00;1.00;;;;;;2282601;61;877;-90
2021/10/20 09:12:31;358550.00;1.20;618.56;79176.00;0.26;137.61;;;;;20.60;1.00;;;;;;2278978;61;935;-93
2021/10/20 09:17:46;383340.00;1.28;661.17;72431.00;0.24;125.96;;;;;20.70;1.00;;;;;;2278610;61;1282;-90
2021/10/20 09:23:03;931535.00;3.11;1611.57;104023.00;0.35;180.52;;;;;20.70;1.00;;;;;;2274517;61;1329;-92
2021/10/20 09:28:11;850048.00;2.83;1468.55;141897.00;0.47;245.84;;;;;21.10;1.00;;;;;;2275297;61;1338;-90
2021/10/20 09:30:42;191634.00;0.64;331.52;0.00;0.00;0.62;;;;;21.10;1.00;;;;;;2273616;61;391;-89
2021/10/20 09:48:22;14730.00;0.05;26.14;0.00;0.00;0.62;;;;;21.60;1.00;;;;;;2283677;61;877;-90
2021/10/20 09:55:45;324605.00;1.08;560.21;0.00;0.00;0.62;;;;;21.80;1.00;;;;;;2283466;61;1340;-87
2021/10/20 10:08:05;365199.00;1.22;629.98;42169.00;0.14;73.64;;;;;21.60;1.00;;;;;;2283543;61;889;-87
2021/10/20 10:10:32;178837.00;0.60;309.49;0.00;0.00;0.62;;;;;22.10;1.00;;;;;;2274512;61;920;-87
2021/10/20 10:35:13;294736.00;0.98;508.87;77640.00;0.26;134.96;;;;;24.00;1.00;;;;;;2484892;39;3568;31
2021/10/20 10:47:33;0.00;0.00;0.62;0.00;0.00;0.62;;;;;24.60;1.00;;;;;;2282324;61;1397;-87
2021/10/20 10:50:03;44213.00;0.15;77.18;0.00;0.00;0.62;;;;;24.70;1.00;;;;;;2467567;40;3877;31
2021/10/20 11:22:05;299791.00;1.00;517.56;74438.00;0.25;129.43;;;;;25.20;1.00;;;;;;2282234;61;1930;-86
2021/10/20 11:44:18;327225.00;1.09;564.72;81486.00;0.27;141.60;;;;;25.30;1.00;;;;;;2281866;61;1337;-83
2021/10/20 11:51:44;278352.00;0.93;480.70;81625.00;0.27;141.84;;;;;25.30;1.00;;;;;;2282433;61;1152;-85
2021/10/20 12:21:41;252843.00;0.84;436.84;77867.00;0.26;135.35;;;;;24.90;1.00;;;;;;2520349;39;3786;31
2021/10/20 12:26:39;399403.00;1.33;688.78;84805.00;0.28;147.34;;;;;25.20;1.00;;;;;;2274504;61;1356;-86
2021/10/20 12:31:35;234608.00;0.78;405.48;85992.00;0.29;149.39;;;;;24.70;1.00;;;;;;2281958;61;1373;-83
2021/10/20 12:54:00;172211.00;0.57;298.07;77209.00;0.26;134.22;;;;;25.70;1.00;;;;;;2281801;61;1397;-85
2021/10/20 13:08:51;0.00;0.00;0.62;0.00;0.00;0.62;;;;;25.50;1.00;;;;;;2386222;39;3747;31
2021/10/20 13:13:51;248741.00;0.83;429.79;77247.00;0.26;134.28;;;;;25.20;1.00;;;;;;2266058;61;1279;-87
2021/10/20 13:50:57;272295.00;0.91;470.29;72651.00;0.24;126.34;;;;;23.80;1.00;;;;;;2282446;61;899;-89
2021/10/20 16:58:01;488880.00;1.63;842.68;88293.00;0.29;153.36;;;;;22.80;1.00;;;;;;2278960;61;941;-89
2021/10/20 17:32:43;173604.00;0.58;300.47;13443.00;0.04;23.91;;;;;21.80;1.00;;;;;;2282522;61;1310;-88
2021/10/20 17:35:12;29370.00;0.10;51.49;0.00;0.00;0.62;;;;;21.80;1.00;;;;;;2280992;61;1392;-91
2021/10/20 17:37:40;10126.00;0.03;18.17;0.00;0.00;0.62;;;;;21.70;1.00;;;;;;2273940;61;809;-90
2021/10/20 17:40:10;0.00;0.00;0.62;0.00;0.00;0.62;;;;;21.50;1.00;;;;;;2276271;61;872;-86
2021/10/20 17:42:38;186036.00;0.62;321.88;0.00;0.00;0.62;;;;;21.40;1.00;;;;;;2266411;61;1919;-91
2021/10/20 17:45:07;160161.00;0.53;277.32;33152.00;0.11;58.04;;;;;21.40;1.00;;;;;;2269672;61;1298;-91
2021/10/20 17:47:41;24619.00;0.08;43.27;0.00;0.00;0.62;;;;;21.20;1.00;;;;;;2268295;61;889;-88
2021/10/20 17:52:36;132474.00;0.44;229.60;0.00;0.00;0.62;;;;;21.20;1.00;;;;;;2283036;61;1302;-89
2021/10/20 18:04:56;15960.00;0.05;28.27;0.00;0.00;0.62;;;;;20.80;1.00;;;;;;2282007;61;1420;-84
2021/10/20 18:09:51;333294.00;1.11;575.15;17179.00;0.06;30.38;;;;;21.00;1.00;;;;;;2282371;61;1365;-84
2021/10/20 18:14:46;136240.00;0.45;236.09;0.00;0.00;0.62;;;;;20.90;1.00;;;;;;2283506;61;1363;-87
2021/10/20 18:19:42;163831.00;0.55;283.64;20777.00;0.07;36.62;;;;;20.80;1.00;;;;;;2282286;61;1401;-85
2021/10/20 18:24:38;294145.00;0.98;507.86;101658.00;0.34;176.43;;;;;20.80;1.00;;;;;;2283144;61;1318;-86
2021/10/20 18:29:33;18394.00;0.06;32.49;0.00;0.00;0.62;;;;;20.70;1.00;;;;;;2282446;61;1393;-83
2021/10/20 18:32:01;125577.00;0.42;217.70;0.00;0.00;0.62;;;;;20.60;1.00;;;;;;2271957;61;1010;-87
2021/10/20 18:49:16;352003.00;1.17;607.30;122747.00;0.41;212.82;;;;;20.90;1.00;;;;;;2277862;61;1184;-85
2021/10/20 19:01:39;1188565.00;3.96;2069.56;226550.00;0.76;391.61;;;;;20.80;1.00;;;;;;2282313;61;1966;-82
2021/10/20 19:04:06;118178056.00;393.93;66856980.00;167514.00;0.56;289.98;;;;;20.90;1.00;;;;;;2285690;55;3815;-86
2021/10/20 19:06:34;117385744.00;391.29;65520100.00;112152.00;0.37;194.54;;;;;21.00;1.00;;;;;;2278207;61;1382;-87
2021/10/20 19:13:57;383822.00;1.28;661.99;83906.00;0.28;145.78;;;;;21.10;1.00;;;;;;2517063;40;3623;31
2021/10/20 19:41:06;0.00;0.00;0.62;0.00;0.00;0.62;;;;;21.40;1.00;;;;;;2282328;61;1972;-84
2021/10/20 19:48:30;54396.00;0.18;94.79;0.00;0.00;0.62;;;;;21.20;1.00;;;;;;2282270;61;1373;-81
2021/10/20 19:51:00;228373.00;0.76;394.75;44709.00;0.15;78.03;;;;;21.10;1.00;;;;;;2275784;61;955;-87
2021/10/20 19:55:57;7223.00;0.02;13.14;0.00;0.00;0.62;;;;;21.00;1.00;;;;;;2282089;61;1401;-85
2021/10/20 20:13:17;11392.00;0.04;20.36;0.00;0.00;0.62;;;;;20.70;1.00;;;;;;2275301;61;1320;-87
2021/10/20 20:35:29;89534.00;0.30;155.50;0.00;0.00;0.62;;;;;19.80;1.00;;;;;;2281806;61;1450;-86
2021/10/20 21:02:45;44154.00;0.15;77.07;0.00;0.00;0.62;;;;;19.60;1.00;;;;;;2282006;61;1964;-86
2021/10/20 21:20:13;97480.00;0.32;169.22;0.00;0.00;0.62;;;;;19.50;1.00;;;;;;2281726;61;1406;-86
2021/10/20 21:25:08;17624.00;0.06;31.16;0.00;0.00;0.62;;;;;19.70;1.00;;;;;;2282362;61;1444;-85
2021/10/20 21:37:36;9664.00;0.03;17.37;0.00;0.00;0.62;;;;;20.70;1.00;;;;;;2282504;61;1393;-84
2021/10/20 21:42:31;62261.00;0.21;108.39;0.00;0.00;0.62;;;;;21.30;1.00;;;;;;2282915;61;1960;-82
2021/10/20 21:47:26;54645.00;0.18;95.22;0.00;0.00;0.62;;;;;21.30;1.00;;;;;;2282755;61;1385;-84
2021/10/20 21:49:53;64147.00;0.21;111.65;0.00;0.00;0.62;;;;;21.20;1.00;;;;;;2280987;61;1008;-83
2021/10/20 21:54:49;48641.00;0.16;84.84;0.00;0.00;0.62;;;;;21.40;1.00;;;;;;2282506;61;1455;-86
2021/10/20 21:57:16;29460.00;0.10;51.65;0.00;0.00;0.62;;;;;21.50;1.00;;;;;;2277017;61;917;-84
2021/10/20 21:59:43;203687.00;0.68;352.27;54667.00;0.18;95.26;;;;;21.60;1.00;;;;;;2272337;61;958;-83
2021/10/20 22:07:06;20928.00;0.07;36.88;0.00;0.00;0.62;;;;;20.90;1.00;;;;;;2274446;61;1380;-85
2021/10/20 22:09:33;19151.00;0.06;33.80;0.00;0.00;0.62;;;;;20.70;1.00;;;;;;2262723;61;1110;-85
2021/10/20 22:12:03;0.00;0.00;0.62;0.00;0.00;0.62;;;;;20.70;1.00;;;;;;2272871;61;925;-85
2021/10/20 22:14:31;0.00;0.00;0.62;0.00;0.00;0.62;;;;;20.80;1.00;;;;;;2265902;61;1002;-85
2021/10/20 22:21:55;188115.00;0.63;325.46;53853.00;0.18;93.85;;;;;20.70;1.00;;;;;;2282635;61;1899;-85
2021/10/20 22:29:19;19479.00;0.06;34.37;0.00;0.00;0.62;;;;;21.00;1.00;;;;;;2282497;61;1148;-83
2021/10/20 22:36:41;46121.00;0.15;80.48;0.00;0.00;0.62;;;;;20.80;1.00;;;;;;2274801;61;1451;-84
2021/10/20 22:39:09;53981.00;0.18;94.07;0.00;0.00;0.62;;;;;20.70;1.00;;;;;;2273141;61;975;-85
2021/10/20 22:44:05;21286.00;0.07;37.50;0.00;0.00;0.62;;;;;20.70;1.00;;;;;;2279538;61;1298;-86
2021/10/20 22:46:34;142918.00;0.48;247.60;0.00;0.00;0.62;;;;;20.70;1.00;;;;;;2276340;61;1413;-88
2021/10/20 22:49:03;14633.00;0.05;25.97;0.00;0.00;0.62;;;;;20.70;1.00;;;;;;2273231;61;902;-86
2021/10/20 22:51:30;161756.00;0.54;280.06;0.00;0.00;0.62;;;;;20.60;1.00;;;;;;2266357;61;915;-88
2021/10/20 22:53:59;46947.00;0.16;81.91;0.00;0.00;0.62;;;;;20.60;1.00;;;;;;2264729;61;900;-86
2021/10/20 22:56:26;88016.00;0.29;152.88;0.00;0.00;0.62;;;;;20.50;1.00;;;;;;2258217;61;1410;-89
2021/10/20 22:58:53;169188.00;0.56;292.87;43198.00;0.14;75.42;;;;;19.90;1.00;;;;;;2258245;61;852;-89
2021/10/20 23:06:17;35199.00;0.12;61.58;0.00;0.00;0.62;;;;;20.20;1.00;;;;;;2278670;61;1418;-86